sensor_id;sensor_type;location;lat;lon;timestamp;temperature;humidity
580;DHT22;276;48.392;9.950;2024-01-25T00:01:42;10.80;99.90
580;DHT22;276;48.392;9.950;2024-01-25T00:04:07;10.80;99.90
580;DHT22;276;48.392;9.950;2024-01-25T00:06:34;10.80;99.90
580;DHT22;276;48.392;9.950;2024-01-25T00:09:02;10.80;99.90
580;DHT22;276;48.392;9.950;2024-01-25T00:11:29;10.80;99.90
580;DHT22;276;48.392;9.950;2024-01-25T00:13:59;10.80;99.90
580;DHT22;276;48.392;9.950;2024-01-25T00:16:25;10.80;99.90
580;DHT22;276;48.392;9.950;2024-01-25T00:18:53;10.70;99.90
580;DHT22;276;48.392;9.950;2024-01-25T00:21:18;10.80;99.90
580;DHT22;276;48.392;9.950;2024-01-25T00:23:44;10.80;99.90
580;DHT22;276;48.392;9.950;2024-01-25T00:26:10;10.90;99.90
580;DHT22;276;48.392;9.950;2024-01-25T00:28:35;10.90;99.90
580;DHT22;276;48.392;9.950;2024-01-25T00:31:03;10.90;99.90
580;DHT22;276;48.392;9.950;2024-01-25T00:33:29;10.90;99.90
580;DHT22;276;48.392;9.950;2024-01-25T00:35:55;10.90;99.90
580;DHT22;276;48.392;9.950;2024-01-25T00:38:24;10.90;99.90
580;DHT22;276;48.392;9.950;2024-01-25T00:40:50;10.90;99.90
580;DHT22;276;48.392;9.950;2024-01-25T00:43:18;10.90;99.90
580;DHT22;276;48.392;9.950;2024-01-25T00:45:44;10.90;99.90
580;DHT22;276;48.392;9.950;2024-01-25T00:48:12;10.90;99.90
580;DHT22;276;48.392;9.950;2024-01-25T00:50:38;10.90;99.90
580;DHT22;276;48.392;9.950;2024-01-25T00:53:04;10.90;99.90
580;DHT22;276;48.392;9.950;2024-01-25T00:55:30;10.90;99.90
580;DHT22;276;48.392;9.950;2024-01-25T00:57:58;11.00;99.90
580;DHT22;276;48.392;9.950;2024-01-25T01:00:25;10.90;99.90
580;DHT22;276;48.392;9.950;2024-01-25T01:02:53;11.00;99.90
580;DHT22;276;48.392;9.950;2024-01-25T01:05:19;11.00;99.90
580;DHT22;276;48.392;9.950;2024-01-25T01:07:45;11.00;99.90
580;DHT22;276;48.392;9.950;2024-01-25T01:10:11;11.10;99.90
580;DHT22;276;48.392;9.950;2024-01-25T01:12:37;11.10;99.90
580;DHT22;276;48.392;9.950;2024-01-25T01:15:03;11.10;99.90
580;DHT22;276;48.392;9.950;2024-01-25T01:17:32;11.10;99.90
580;DHT22;276;48.392;9.950;2024-01-25T01:20:00;11.10;99.90
580;DHT22;276;48.392;9.950;2024-01-25T01:22:28;11.10;99.90
580;DHT22;276;48.392;9.950;2024-01-25T01:24:54;11.10;99.90
580;DHT22;276;48.392;9.950;2024-01-25T01:27:20;11.10;99.90
580;DHT22;276;48.392;9.950;2024-01-25T01:29:50;11.10;99.90
580;DHT22;276;48.392;9.950;2024-01-25T01:32:16;11.20;99.90
580;DHT22;276;48.392;9.950;2024-01-25T01:34:44;11.20;99.90
580;DHT22;276;48.392;9.950;2024-01-25T01:37:12;11.20;99.90
580;DHT22;276;48.392;9.950;2024-01-25T01:39:40;11.20;99.90
580;DHT22;276;48.392;9.950;2024-01-25T01:42:06;11.20;99.90
580;DHT22;276;48.392;9.950;2024-01-25T01:44:34;11.20;99.90
580;DHT22;276;48.392;9.950;2024-01-25T01:46:59;11.20;99.90
580;DHT22;276;48.392;9.950;2024-01-25T01:49:26;11.20;99.90
580;DHT22;276;48.392;9.950;2024-01-25T01:51:52;11.20;99.90
580;DHT22;276;48.392;9.950;2024-01-25T01:54:18;11.20;99.90
580;DHT22;276;48.392;9.950;2024-01-25T01:56:44;11.20;99.90
580;DHT22;276;48.392;9.950;2024-01-25T01:59:11;11.20;99.90
580;DHT22;276;48.392;9.950;2024-01-25T02:01:39;11.20;99.90
580;DHT22;276;48.392;9.950;2024-01-25T02:04:07;11.20;99.90
580;DHT22;276;48.392;9.950;2024-01-25T02:06:35;11.20;99.90
580;DHT22;276;48.392;9.950;2024-01-25T02:09:03;11.20;99.90
580;DHT22;276;48.392;9.950;2024-01-25T02:11:30;11.20;99.90
580;DHT22;276;48.392;9.950;2024-01-25T02:13:58;11.20;99.90
580;DHT22;276;48.392;9.950;2024-01-25T02:16:26;11.20;99.90
580;DHT22;276;48.392;9.950;2024-01-25T02:18:54;11.20;99.90
580;DHT22;276;48.392;9.950;2024-01-25T02:21:22;11.20;99.90
580;DHT22;276;48.392;9.950;2024-01-25T02:23:48;11.20;99.90
580;DHT22;276;48.392;9.950;2024-01-25T02:26:13;11.20;99.90
580;DHT22;276;48.392;9.950;2024-01-25T02:28:41;11.10;99.90
580;DHT22;276;48.392;9.950;2024-01-25T02:31:07;11.20;99.90
580;DHT22;276;48.392;9.950;2024-01-25T02:33:32;11.10;99.90
580;DHT22;276;48.392;9.950;2024-01-25T02:35:58;11.10;99.90
580;DHT22;276;48.392;9.950;2024-01-25T02:38:24;11.10;99.90
580;DHT22;276;48.392;9.950;2024-01-25T02:40:52;11.10;99.90
580;DHT22;276;48.392;9.950;2024-01-25T02:43:21;11.10;99.90
580;DHT22;276;48.392;9.950;2024-01-25T02:45:47;11.10;99.90
580;DHT22;276;48.392;9.950;2024-01-25T02:48:14;11.10;99.90
580;DHT22;276;48.392;9.950;2024-01-25T02:50:39;11.10;99.90
580;DHT22;276;48.392;9.950;2024-01-25T02:53:05;11.10;99.90
580;DHT22;276;48.392;9.950;2024-01-25T02:55:33;11.00;99.90
580;DHT22;276;48.392;9.950;2024-01-25T02:57:58;11.10;99.90
580;DHT22;276;48.392;9.950;2024-01-25T03:00:24;11.00;99.90
580;DHT22;276;48.392;9.950;2024-01-25T03:02:54;10.90;99.90
580;DHT22;276;48.392;9.950;2024-01-25T03:05:20;10.90;99.90
580;DHT22;276;48.392;9.950;2024-01-25T03:07:45;10.80;99.90
580;DHT22;276;48.392;9.950;2024-01-25T03:10:11;10.70;99.90
580;DHT22;276;48.392;9.950;2024-01-25T03:12:37;10.70;99.90
580;DHT22;276;48.392;9.950;2024-01-25T03:15:03;10.60;99.90
580;DHT22;276;48.392;9.950;2024-01-25T03:17:34;10.60;99.90
580;DHT22;276;48.392;9.950;2024-01-25T03:19:59;10.60;99.90
580;DHT22;276;48.392;9.950;2024-01-25T03:22:27;10.60;99.90
580;DHT22;276;48.392;9.950;2024-01-25T03:24:53;10.50;99.90
580;DHT22;276;48.392;9.950;2024-01-25T03:27:19;10.50;99.90
580;DHT22;276;48.392;9.950;2024-01-25T03:29:44;10.50;99.90
580;DHT22;276;48.392;9.950;2024-01-25T03:32:10;10.50;99.90
580;DHT22;276;48.392;9.950;2024-01-25T03:34:36;10.40;99.90
580;DHT22;276;48.392;9.950;2024-01-25T03:37:02;10.50;99.90
580;DHT22;276;48.392;9.950;2024-01-25T03:39:30;10.50;99.90
580;DHT22;276;48.392;9.950;2024-01-25T03:41:56;10.50;99.90
580;DHT22;276;48.392;9.950;2024-01-25T03:44:22;10.50;99.90
580;DHT22;276;48.392;9.950;2024-01-25T03:46:47;10.40;99.90
580;DHT22;276;48.392;9.950;2024-01-25T03:49:13;10.40;99.90
580;DHT22;276;48.392;9.950;2024-01-25T03:51:38;10.30;99.90
580;DHT22;276;48.392;9.950;2024-01-25T03:54:06;10.30;99.90
580;DHT22;276;48.392;9.950;2024-01-25T03:56:32;10.30;99.90
580;DHT22;276;48.392;9.950;2024-01-25T03:58:58;10.20;99.90
580;DHT22;276;48.392;9.950;2024-01-25T04:01:23;10.20;99.90
580;DHT22;276;48.392;9.950;2024-01-25T04:03:49;10.30;99.90
580;DHT22;276;48.392;9.950;2024-01-25T04:06:14;10.30;99.90
580;DHT22;276;48.392;9.950;2024-01-25T04:08:40;10.20;99.90
580;DHT22;276;48.392;9.950;2024-01-25T04:11:10;10.20;99.90
580;DHT22;276;48.392;9.950;2024-01-25T04:13:40;10.20;99.90
580;DHT22;276;48.392;9.950;2024-01-25T04:16:14;10.20;99.90
580;DHT22;276;48.392;9.950;2024-01-25T04:18:39;10.20;99.90
580;DHT22;276;48.392;9.950;2024-01-25T04:21:05;10.20;99.90
580;DHT22;276;48.392;9.950;2024-01-25T04:23:31;10.20;99.90
580;DHT22;276;48.392;9.950;2024-01-25T04:25:56;10.20;99.90
580;DHT22;276;48.392;9.950;2024-01-25T04:28:24;10.20;99.90
580;DHT22;276;48.392;9.950;2024-01-25T04:30:52;10.20;99.90
580;DHT22;276;48.392;9.950;2024-01-25T04:33:18;10.20;99.90
580;DHT22;276;48.392;9.950;2024-01-25T04:35:43;10.20;99.90
580;DHT22;276;48.392;9.950;2024-01-25T04:38:10;10.20;99.90
580;DHT22;276;48.392;9.950;2024-01-25T04:40:38;10.20;99.90
580;DHT22;276;48.392;9.950;2024-01-25T04:43:04;10.20;99.90
580;DHT22;276;48.392;9.950;2024-01-25T04:45:29;10.30;99.90
580;DHT22;276;48.392;9.950;2024-01-25T04:47:57;10.30;99.90
580;DHT22;276;48.392;9.950;2024-01-25T04:50:23;10.30;99.90
580;DHT22;276;48.392;9.950;2024-01-25T04:52:49;10.30;99.90
580;DHT22;276;48.392;9.950;2024-01-25T04:55:14;10.40;99.90
580;DHT22;276;48.392;9.950;2024-01-25T04:57:40;10.40;99.90
580;DHT22;276;48.392;9.950;2024-01-25T05:00:06;10.40;99.90
580;DHT22;276;48.392;9.950;2024-01-25T05:02:32;10.40;99.90
580;DHT22;276;48.392;9.950;2024-01-25T05:04:57;10.50;99.90
580;DHT22;276;48.392;9.950;2024-01-25T05:07:25;10.40;99.90
580;DHT22;276;48.392;9.950;2024-01-25T05:09:54;10.40;99.90
580;DHT22;276;48.392;9.950;2024-01-25T05:12:22;10.40;99.90
580;DHT22;276;48.392;9.950;2024-01-25T05:14:47;10.50;99.90
580;DHT22;276;48.392;9.950;2024-01-25T05:17:15;10.40;99.90
580;DHT22;276;48.392;9.950;2024-01-25T05:19:41;10.40;99.90
580;DHT22;276;48.392;9.950;2024-01-25T05:22:07;10.40;99.90
580;DHT22;276;48.392;9.950;2024-01-25T05:24:33;10.40;99.90
580;DHT22;276;48.392;9.950;2024-01-25T05:27:02;10.50;99.90
580;DHT22;276;48.392;9.950;2024-01-25T05:29:30;10.50;99.90
580;DHT22;276;48.392;9.950;2024-01-25T05:31:58;10.50;99.90
580;DHT22;276;48.392;9.950;2024-01-25T05:34:24;10.40;99.90
580;DHT22;276;48.392;9.950;2024-01-25T05:36:54;10.50;99.90
580;DHT22;276;48.392;9.950;2024-01-25T05:39:20;10.40;99.90
580;DHT22;276;48.392;9.950;2024-01-25T05:41:45;10.50;99.90
580;DHT22;276;48.392;9.950;2024-01-25T05:44:13;10.50;99.90
580;DHT22;276;48.392;9.950;2024-01-25T05:46:39;10.40;99.90
580;DHT22;276;48.392;9.950;2024-01-25T05:49:04;10.40;99.90
580;DHT22;276;48.392;9.950;2024-01-25T05:51:30;10.40;99.90
580;DHT22;276;48.392;9.950;2024-01-25T05:53:56;10.40;99.90
580;DHT22;276;48.392;9.950;2024-01-25T05:56:24;10.40;99.90
580;DHT22;276;48.392;9.950;2024-01-25T05:58:50;10.40;99.90
580;DHT22;276;48.392;9.950;2024-01-25T06:01:16;10.50;99.90
580;DHT22;276;48.392;9.950;2024-01-25T06:03:44;10.50;99.90
580;DHT22;276;48.392;9.950;2024-01-25T06:06:10;10.40;99.90
580;DHT22;276;48.392;9.950;2024-01-25T06:08:35;10.50;99.90
580;DHT22;276;48.392;9.950;2024-01-25T06:11:01;10.50;99.90
580;DHT22;276;48.392;9.950;2024-01-25T06:13:27;10.60;99.90
580;DHT22;276;48.392;9.950;2024-01-25T06:15:52;10.60;99.90
580;DHT22;276;48.392;9.950;2024-01-25T06:18:18;10.50;99.90
580;DHT22;276;48.392;9.950;2024-01-25T06:20:46;10.50;99.90
580;DHT22;276;48.392;9.950;2024-01-25T06:23:14;10.50;99.90
580;DHT22;276;48.392;9.950;2024-01-25T06:25:42;10.40;99.90
580;DHT22;276;48.392;9.950;2024-01-25T06:28:10;10.40;99.90
580;DHT22;276;48.392;9.950;2024-01-25T06:30:36;10.40;99.90
580;DHT22;276;48.392;9.950;2024-01-25T06:33:04;10.40;99.90
580;DHT22;276;48.392;9.950;2024-01-25T06:35:29;10.40;99.90
580;DHT22;276;48.392;9.950;2024-01-25T06:37:56;10.40;99.90
580;DHT22;276;48.392;9.950;2024-01-25T06:40:24;10.40;99.90
580;DHT22;276;48.392;9.950;2024-01-25T06:42:49;10.40;99.90
580;DHT22;276;48.392;9.950;2024-01-25T06:45:20;10.40;99.90
580;DHT22;276;48.392;9.950;2024-01-25T06:47:45;10.40;99.90
580;DHT22;276;48.392;9.950;2024-01-25T06:50:11;10.50;99.90
580;DHT22;276;48.392;9.950;2024-01-25T06:52:37;10.50;99.90
580;DHT22;276;48.392;9.950;2024-01-25T06:55:03;10.40;99.90
580;DHT22;276;48.392;9.950;2024-01-25T06:57:29;10.50;99.90
580;DHT22;276;48.392;9.950;2024-01-25T06:59:54;10.50;99.90
580;DHT22;276;48.392;9.950;2024-01-25T07:02:20;10.40;99.90
580;DHT22;276;48.392;9.950;2024-01-25T07:04:45;10.50;99.90
580;DHT22;276;48.392;9.950;2024-01-25T07:07:11;10.40;99.90
580;DHT22;276;48.392;9.950;2024-01-25T07:09:37;10.40;99.90
580;DHT22;276;48.392;9.950;2024-01-25T07:12:02;10.40;99.90
580;DHT22;276;48.392;9.950;2024-01-25T07:14:31;10.30;99.90
580;DHT22;276;48.392;9.950;2024-01-25T07:16:56;10.30;99.90
580;DHT22;276;48.392;9.950;2024-01-25T07:19:22;10.30;99.90
580;DHT22;276;48.392;9.950;2024-01-25T07:21:50;10.20;99.90
580;DHT22;276;48.392;9.950;2024-01-25T07:24:15;10.20;99.90
580;DHT22;276;48.392;9.950;2024-01-25T07:26:44;10.20;99.90
580;DHT22;276;48.392;9.950;2024-01-25T07:29:09;10.30;99.90
580;DHT22;276;48.392;9.950;2024-01-25T07:31:35;10.20;99.90
580;DHT22;276;48.392;9.950;2024-01-25T07:34:01;10.20;99.90
580;DHT22;276;48.392;9.950;2024-01-25T07:36:26;10.20;99.90
580;DHT22;276;48.392;9.950;2024-01-25T07:38:55;10.30;99.90
580;DHT22;276;48.392;9.950;2024-01-25T07:41:22;10.20;99.90
580;DHT22;276;48.392;9.950;2024-01-25T07:43:48;10.20;99.90
580;DHT22;276;48.392;9.950;2024-01-25T07:46:16;10.20;99.90
580;DHT22;276;48.392;9.950;2024-01-25T07:48:44;10.20;99.90
580;DHT22;276;48.392;9.950;2024-01-25T07:51:13;10.10;99.90
580;DHT22;276;48.392;9.950;2024-01-25T07:53:39;10.20;99.90
580;DHT22;276;48.392;9.950;2024-01-25T07:56:07;10.20;99.90
580;DHT22;276;48.392;9.950;2024-01-25T07:58:35;10.30;99.90
580;DHT22;276;48.392;9.950;2024-01-25T08:01:05;10.30;99.90
580;DHT22;276;48.392;9.950;2024-01-25T08:03:32;10.40;99.90
580;DHT22;276;48.392;9.950;2024-01-25T08:06:02;10.40;99.90
580;DHT22;276;48.392;9.950;2024-01-25T08:08:28;10.40;99.90
580;DHT22;276;48.392;9.950;2024-01-25T08:10:54;10.40;99.90
580;DHT22;276;48.392;9.950;2024-01-25T08:13:19;10.40;99.90
580;DHT22;276;48.392;9.950;2024-01-25T08:15:45;10.40;99.90
580;DHT22;276;48.392;9.950;2024-01-25T08:18:11;10.40;99.90
580;DHT22;276;48.392;9.950;2024-01-25T08:20:38;10.50;99.90
580;DHT22;276;48.392;9.950;2024-01-25T08:23:03;10.60;99.90
580;DHT22;276;48.392;9.950;2024-01-25T08:25:29;10.70;99.90
580;DHT22;276;48.392;9.950;2024-01-25T08:27:55;10.70;99.90
580;DHT22;276;48.392;9.950;2024-01-25T08:30:20;10.80;99.90
580;DHT22;276;48.392;9.950;2024-01-25T08:32:46;10.90;99.90
580;DHT22;276;48.392;9.950;2024-01-25T08:35:12;10.90;99.90
580;DHT22;276;48.392;9.950;2024-01-25T08:37:37;11.00;99.90
580;DHT22;276;48.392;9.950;2024-01-25T08:40:04;11.10;99.90
580;DHT22;276;48.392;9.950;2024-01-25T08:42:32;11.10;99.90
580;DHT22;276;48.392;9.950;2024-01-25T08:45:00;11.20;99.90
580;DHT22;276;48.392;9.950;2024-01-25T08:47:25;11.30;99.90
580;DHT22;276;48.392;9.950;2024-01-25T08:49:53;11.40;99.90
580;DHT22;276;48.392;9.950;2024-01-25T08:52:19;11.40;99.90
580;DHT22;276;48.392;9.950;2024-01-25T08:54:45;11.40;99.90
580;DHT22;276;48.392;9.950;2024-01-25T08:57:10;11.50;99.90
580;DHT22;276;48.392;9.950;2024-01-25T08:59:36;11.50;99.90
580;DHT22;276;48.392;9.950;2024-01-25T09:02:06;11.60;99.90
580;DHT22;276;48.392;9.950;2024-01-25T09:04:36;11.60;99.90
580;DHT22;276;48.392;9.950;2024-01-25T09:07:08;11.70;99.90
580;DHT22;276;48.392;9.950;2024-01-25T09:09:34;11.70;99.90
580;DHT22;276;48.392;9.950;2024-01-25T09:12:01;11.70;99.90
580;DHT22;276;48.392;9.950;2024-01-25T09:14:27;11.70;99.90
580;DHT22;276;48.392;9.950;2024-01-25T09:16:53;11.70;99.90
580;DHT22;276;48.392;9.950;2024-01-25T09:19:19;11.80;99.90
580;DHT22;276;48.392;9.950;2024-01-25T09:21:47;11.90;99.90
580;DHT22;276;48.392;9.950;2024-01-25T09:24:14;12.00;99.90
580;DHT22;276;48.392;9.950;2024-01-25T09:26:40;12.30;99.90
580;DHT22;276;48.392;9.950;2024-01-25T09:29:06;12.50;99.90
580;DHT22;276;48.392;9.950;2024-01-25T09:31:31;12.70;99.90
580;DHT22;276;48.392;9.950;2024-01-25T09:33:59;13.00;99.90
580;DHT22;276;48.392;9.950;2024-01-25T09:36:25;13.30;99.90
580;DHT22;276;48.392;9.950;2024-01-25T09:38:51;13.60;99.90
580;DHT22;276;48.392;9.950;2024-01-25T09:41:21;14.00;99.90
580;DHT22;276;48.392;9.950;2024-01-25T09:43:49;14.40;99.90
580;DHT22;276;48.392;9.950;2024-01-25T09:46:15;14.80;99.90
580;DHT22;276;48.392;9.950;2024-01-25T09:48:42;15.30;99.90
580;DHT22;276;48.392;9.950;2024-01-25T09:51:09;15.70;99.60
580;DHT22;276;48.392;9.950;2024-01-25T09:53:37;16.00;99.00
580;DHT22;276;48.392;9.950;2024-01-25T09:56:12;16.40;98.60
580;DHT22;276;48.392;9.950;2024-01-25T09:58:41;16.70;98.00
580;DHT22;276;48.392;9.950;2024-01-25T10:01:13;17.00;97.00
580;DHT22;276;48.392;9.950;2024-01-25T10:03:43;17.20;96.30
580;DHT22;276;48.392;9.950;2024-01-25T10:06:11;17.50;94.80
580;DHT22;276;48.392;9.950;2024-01-25T10:08:40;18.00;94.20
580;DHT22;276;48.392;9.950;2024-01-25T10:11:06;18.60;93.50
580;DHT22;276;48.392;9.950;2024-01-25T10:13:46;19.20;91.50
580;DHT22;276;48.392;9.950;2024-01-25T10:16:13;19.70;90.10
580;DHT22;276;48.392;9.950;2024-01-25T10:18:43;19.90;87.60
580;DHT22;276;48.392;9.950;2024-01-25T10:21:14;20.10;86.20
580;DHT22;276;48.392;9.950;2024-01-25T10:23:43;20.60;83.90
580;DHT22;276;48.392;9.950;2024-01-25T10:26:11;21.10;81.90
580;DHT22;276;48.392;9.950;2024-01-25T10:28:39;20.70;81.00
580;DHT22;276;48.392;9.950;2024-01-25T10:31:07;20.50;81.40
580;DHT22;276;48.392;9.950;2024-01-25T10:33:34;20.60;80.50
580;DHT22;276;48.392;9.950;2024-01-25T10:36:01;21.10;79.50
580;DHT22;276;48.392;9.950;2024-01-25T10:38:35;22.10;77.50
580;DHT22;276;48.392;9.950;2024-01-25T10:41:05;22.30;74.90
580;DHT22;276;48.392;9.950;2024-01-25T10:43:34;21.70;74.60
580;DHT22;276;48.392;9.950;2024-01-25T10:46:03;20.90;75.60
580;DHT22;276;48.392;9.950;2024-01-25T10:48:31;20.10;76.20
580;DHT22;276;48.392;9.950;2024-01-25T10:50:58;19.40;77.00
580;DHT22;276;48.392;9.950;2024-01-25T10:53:31;18.90;78.10
580;DHT22;276;48.392;9.950;2024-01-25T10:55:57;18.70;78.80
580;DHT22;276;48.392;9.950;2024-01-25T10:58:33;19.00;79.10
580;DHT22;276;48.392;9.950;2024-01-25T11:01:01;19.20;78.80
580;DHT22;276;48.392;9.950;2024-01-25T11:03:29;19.10;78.60
580;DHT22;276;48.392;9.950;2024-01-25T11:08:37;18.10;79.30
580;DHT22;276;48.392;9.950;2024-01-25T11:11:06;17.60;79.50
580;DHT22;276;48.392;9.950;2024-01-25T11:13:35;17.20;79.90
580;DHT22;276;48.392;9.950;2024-01-25T11:16:16;17.00;80.60
580;DHT22;276;48.392;9.950;2024-01-25T11:18:54;17.20;81.10
580;DHT22;276;48.392;9.950;2024-01-25T11:21:44;17.40;80.30
580;DHT22;276;48.392;9.950;2024-01-25T11:24:24;17.30;79.90
580;DHT22;276;48.392;9.950;2024-01-25T11:26:51;17.10;80.10
580;DHT22;276;48.392;9.950;2024-01-25T11:29:22;16.90;80.70
580;DHT22;276;48.392;9.950;2024-01-25T11:31:52;16.80;81.50
580;DHT22;276;48.392;9.950;2024-01-25T11:34:20;16.90;82.00
580;DHT22;276;48.392;9.950;2024-01-25T11:36:51;17.10;82.40
580;DHT22;276;48.392;9.950;2024-01-25T11:39:17;17.50;82.10
580;DHT22;276;48.392;9.950;2024-01-25T11:41:44;17.90;81.10
580;DHT22;276;48.392;9.950;2024-01-25T11:44:11;18.50;80.00
580;DHT22;276;48.392;9.950;2024-01-25T11:46:39;19.10;79.30
580;DHT22;276;48.392;9.950;2024-01-25T11:49:05;19.50;78.00
580;DHT22;276;48.392;9.950;2024-01-25T11:51:32;21.20;76.00
580;DHT22;276;48.392;9.950;2024-01-25T11:53:58;23.40;71.10
580;DHT22;276;48.392;9.950;2024-01-25T11:56:28;25.40;66.20
580;DHT22;276;48.392;9.950;2024-01-25T11:58:55;26.60;60.50
580;DHT22;276;48.392;9.950;2024-01-25T12:01:23;27.10;58.20
580;DHT22;276;48.392;9.950;2024-01-25T12:03:49;28.00;55.70
580;DHT22;276;48.392;9.950;2024-01-25T12:06:18;29.20;53.20
580;DHT22;276;48.392;9.950;2024-01-25T12:08:44;30.30;50.30
580;DHT22;276;48.392;9.950;2024-01-25T12:11:11;31.30;48.00
580;DHT22;276;48.392;9.950;2024-01-25T12:13:43;31.90;46.30
580;DHT22;276;48.392;9.950;2024-01-25T12:16:09;32.30;44.60
580;DHT22;276;48.392;9.950;2024-01-25T12:18:37;32.60;43.30
580;DHT22;276;48.392;9.950;2024-01-25T12:21:08;32.70;42.30
580;DHT22;276;48.392;9.950;2024-01-25T12:23:42;32.70;41.40
580;DHT22;276;48.392;9.950;2024-01-25T12:26:10;32.50;40.80
580;DHT22;276;48.392;9.950;2024-01-25T12:28:37;32.30;40.70
580;DHT22;276;48.392;9.950;2024-01-25T12:31:04;31.90;40.80
580;DHT22;276;48.392;9.950;2024-01-25T12:33:35;31.00;41.60
580;DHT22;276;48.392;9.950;2024-01-25T12:36:02;30.00;42.00
580;DHT22;276;48.392;9.950;2024-01-25T12:38:31;29.40;42.90
580;DHT22;276;48.392;9.950;2024-01-25T12:41:01;28.50;43.70
580;DHT22;276;48.392;9.950;2024-01-25T12:43:32;28.00;44.40
580;DHT22;276;48.392;9.950;2024-01-25T12:46:02;27.70;44.50
580;DHT22;276;48.392;9.950;2024-01-25T12:48:30;26.80;45.30
580;DHT22;276;48.392;9.950;2024-01-25T12:50:56;25.80;46.30
580;DHT22;276;48.392;9.950;2024-01-25T12:53:22;25.00;47.50
580;DHT22;276;48.392;9.950;2024-01-25T12:55:48;24.70;48.00
580;DHT22;276;48.392;9.950;2024-01-25T12:58:14;24.60;48.40
580;DHT22;276;48.392;9.950;2024-01-25T13:00:39;24.50;49.10
580;DHT22;276;48.392;9.950;2024-01-25T13:03:05;24.20;49.40
580;DHT22;276;48.392;9.950;2024-01-25T13:05:34;23.70;49.40
580;DHT22;276;48.392;9.950;2024-01-25T13:08:01;23.20;50.10
580;DHT22;276;48.392;9.950;2024-01-25T13:10:30;22.60;51.30
580;DHT22;276;48.392;9.950;2024-01-25T13:12:58;22.00;52.40
580;DHT22;276;48.392;9.950;2024-01-25T13:15:24;21.50;53.40
580;DHT22;276;48.392;9.950;2024-01-25T13:17:50;20.90;53.80
580;DHT22;276;48.392;9.950;2024-01-25T13:20:18;20.40;54.90
580;DHT22;276;48.392;9.950;2024-01-25T13:22:43;20.10;55.80
580;DHT22;276;48.392;9.950;2024-01-25T13:25:09;19.70;56.50
580;DHT22;276;48.392;9.950;2024-01-25T13:27:39;19.30;57.30
580;DHT22;276;48.392;9.950;2024-01-25T13:30:05;19.00;57.90
580;DHT22;276;48.392;9.950;2024-01-25T13:32:31;18.60;58.40
580;DHT22;276;48.392;9.950;2024-01-25T13:34:57;18.30;59.10
580;DHT22;276;48.392;9.950;2024-01-25T13:37:25;18.10;60.70
580;DHT22;276;48.392;9.950;2024-01-25T13:39:50;17.90;60.90
580;DHT22;276;48.392;9.950;2024-01-25T13:42:16;17.80;61.70
580;DHT22;276;48.392;9.950;2024-01-25T13:44:42;17.60;61.60
580;DHT22;276;48.392;9.950;2024-01-25T13:47:12;17.50;62.10
580;DHT22;276;48.392;9.950;2024-01-25T13:49:40;17.30;62.30
580;DHT22;276;48.392;9.950;2024-01-25T13:52:17;17.10;62.80
580;DHT22;276;48.392;9.950;2024-01-25T13:54:46;17.00;64.20
580;DHT22;276;48.392;9.950;2024-01-25T13:57:17;16.90;64.00
580;DHT22;276;48.392;9.950;2024-01-25T13:59:43;16.80;64.40
580;DHT22;276;48.392;9.950;2024-01-25T14:02:11;16.70;65.50
580;DHT22;276;48.392;9.950;2024-01-25T14:04:41;16.60;65.20
580;DHT22;276;48.392;9.950;2024-01-25T14:07:06;16.50;66.00
580;DHT22;276;48.392;9.950;2024-01-25T14:09:35;16.30;65.50
580;DHT22;276;48.392;9.950;2024-01-25T14:12:01;16.20;65.80
580;DHT22;276;48.392;9.950;2024-01-25T14:14:26;16.00;66.40
580;DHT22;276;48.392;9.950;2024-01-25T14:16:52;16.00;67.10
580;DHT22;276;48.392;9.950;2024-01-25T14:19:18;15.80;66.90
580;DHT22;276;48.392;9.950;2024-01-25T14:21:48;15.60;67.20
580;DHT22;276;48.392;9.950;2024-01-25T14:24:14;15.60;67.90
580;DHT22;276;48.392;9.950;2024-01-25T14:26:40;15.50;68.50
580;DHT22;276;48.392;9.950;2024-01-25T14:29:05;15.30;71.20
580;DHT22;276;48.392;9.950;2024-01-25T14:31:33;15.10;72.70
580;DHT22;276;48.392;9.950;2024-01-25T14:34:01;14.90;74.30
580;DHT22;276;48.392;9.950;2024-01-25T14:36:27;14.80;74.80
580;DHT22;276;48.392;9.950;2024-01-25T14:38:55;14.70;75.70
580;DHT22;276;48.392;9.950;2024-01-25T14:41:20;14.50;76.10
580;DHT22;276;48.392;9.950;2024-01-25T14:43:48;14.40;77.20
580;DHT22;276;48.392;9.950;2024-01-25T14:46:14;14.20;78.00
580;DHT22;276;48.392;9.950;2024-01-25T14:48:42;14.20;78.80
580;DHT22;276;48.392;9.950;2024-01-25T14:51:10;14.00;79.70
580;DHT22;276;48.392;9.950;2024-01-25T14:53:37;13.90;80.20
580;DHT22;276;48.392;9.950;2024-01-25T14:56:03;13.80;80.90
580;DHT22;276;48.392;9.950;2024-01-25T14:58:31;13.80;81.90
580;DHT22;276;48.392;9.950;2024-01-25T15:00:57;13.70;82.70
580;DHT22;276;48.392;9.950;2024-01-25T15:03:23;13.60;84.20
580;DHT22;276;48.392;9.950;2024-01-25T15:05:49;13.40;85.40
580;DHT22;276;48.392;9.950;2024-01-25T15:08:14;13.30;86.50
580;DHT22;276;48.392;9.950;2024-01-25T15:10:43;13.30;87.40
580;DHT22;276;48.392;9.950;2024-01-25T15:13:10;13.20;88.40
580;DHT22;276;48.392;9.950;2024-01-25T15:15:41;13.10;89.60
580;DHT22;276;48.392;9.950;2024-01-25T15:18:09;13.10;90.20
580;DHT22;276;48.392;9.950;2024-01-25T15:20:34;13.00;90.50
580;DHT22;276;48.392;9.950;2024-01-25T15:23:03;12.90;91.00
580;DHT22;276;48.392;9.950;2024-01-25T15:25:35;12.90;91.30
580;DHT22;276;48.392;9.950;2024-01-25T15:28:01;12.80;91.60
580;DHT22;276;48.392;9.950;2024-01-25T15:30:29;12.80;92.10
580;DHT22;276;48.392;9.950;2024-01-25T15:32:59;12.80;92.60
580;DHT22;276;48.392;9.950;2024-01-25T15:35:27;12.70;93.20
580;DHT22;276;48.392;9.950;2024-01-25T15:37:56;12.60;94.00
580;DHT22;276;48.392;9.950;2024-01-25T15:40:26;12.50;94.30
580;DHT22;276;48.392;9.950;2024-01-25T15:42:54;12.50;95.10
580;DHT22;276;48.392;9.950;2024-01-25T15:45:21;12.40;96.10
580;DHT22;276;48.392;9.950;2024-01-25T15:47:49;12.30;96.30
580;DHT22;276;48.392;9.950;2024-01-25T15:50:17;12.30;97.00
580;DHT22;276;48.392;9.950;2024-01-25T15:52:46;12.30;97.20
580;DHT22;276;48.392;9.950;2024-01-25T15:55:11;12.40;97.60
580;DHT22;276;48.392;9.950;2024-01-25T15:57:39;12.40;97.80
580;DHT22;276;48.392;9.950;2024-01-25T16:00:05;12.40;98.20
580;DHT22;276;48.392;9.950;2024-01-25T16:02:32;12.40;98.60
580;DHT22;276;48.392;9.950;2024-01-25T16:05:02;12.40;98.90
580;DHT22;276;48.392;9.950;2024-01-25T16:07:28;12.40;99.30
580;DHT22;276;48.392;9.950;2024-01-25T16:09:54;12.40;99.50
580;DHT22;276;48.392;9.950;2024-01-25T16:12:22;12.40;99.70
580;DHT22;276;48.392;9.950;2024-01-25T16:14:51;12.40;99.90
580;DHT22;276;48.392;9.950;2024-01-25T16:17:21;12.40;99.90
580;DHT22;276;48.392;9.950;2024-01-25T16:19:51;12.30;99.90
580;DHT22;276;48.392;9.950;2024-01-25T16:22:20;12.40;99.90
580;DHT22;276;48.392;9.950;2024-01-25T16:24:48;12.30;99.90
580;DHT22;276;48.392;9.950;2024-01-25T16:27:16;12.30;99.90
580;DHT22;276;48.392;9.950;2024-01-25T16:29:46;12.30;99.90
580;DHT22;276;48.392;9.950;2024-01-25T16:32:14;12.30;99.90
580;DHT22;276;48.392;9.950;2024-01-25T16:34:42;12.30;99.90
580;DHT22;276;48.392;9.950;2024-01-25T16:37:10;12.20;99.90